sensor_id;sensor_type;location;lat;lon;timestamp;pressure;altitude;pressure_sealevel;temperature;humidity
59274;BME280;45044;41.572;24.730;2023-07-02T00:00:31;90873.94;;;15.13;100.00
59274;BME280;45044;41.572;24.730;2023-07-02T00:03:16;90882.34;;;14.71;100.00
59274;BME280;45044;41.572;24.730;2023-07-02T00:06:01;90875.72;;;14.83;100.00
59274;BME280;45044;41.572;24.730;2023-07-02T00:08:46;90873.09;;;14.83;100.00
59274;BME280;45044;41.572;24.730;2023-07-02T00:11:32;90873.44;;;15.02;100.00
59274;BME280;45044;41.572;24.730;2023-07-02T00:14:18;90869.72;;;14.99;100.00
59274;BME280;45044;41.572;24.730;2023-07-02T00:17:03;90870.81;;;14.81;100.00
59274;BME280;45044;41.572;24.730;2023-07-02T00:19:49;90872.25;;;14.86;100.00
59274;BME280;45044;41.572;24.730;2023-07-02T00:22:37;90865.38;;;14.89;100.00
59274;BME280;45044;41.572;24.730;2023-07-02T00:25:22;90866.97;;;14.86;100.00
59274;BME280;45044;41.572;24.730;2023-07-02T00:28:08;90871.69;;;14.75;100.00
59274;BME280;45044;41.572;24.730;2023-07-02T00:30:53;90871.34;;;14.72;100.00
59274;BME280;45044;41.572;24.730;2023-07-02T00:33:38;90871.44;;;14.89;100.00
59274;BME280;45044;41.572;24.730;2023-07-02T00:36:24;90875.88;;;14.92;100.00
59274;BME280;45044;41.572;24.730;2023-07-02T00:39:09;90874.50;;;14.88;100.00
59274;BME280;45044;41.572;24.730;2023-07-02T00:42:03;90870.69;;;15.05;100.00
59274;BME280;45044;41.572;24.730;2023-07-02T00:44:49;90871.69;;;14.75;100.00
59274;BME280;45044;41.572;24.730;2023-07-02T00:47:37;90868.22;;;14.78;100.00
59274;BME280;45044;41.572;24.730;2023-07-02T00:50:23;90866.00;;;14.76;100.00
59274;BME280;45044;41.572;24.730;2023-07-02T00:53:10;90866.41;;;14.75;100.00
59274;BME280;45044;41.572;24.730;2023-07-02T00:55:55;90869.47;;;14.73;100.00
59274;BME280;45044;41.572;24.730;2023-07-02T00:58:43;90867.38;;;14.84;100.00
59274;BME280;45044;41.572;24.730;2023-07-02T01:01:31;90857.22;;;14.83;100.00
59274;BME280;45044;41.572;24.730;2023-07-02T01:04:23;90854.94;;;14.81;100.00
59274;BME280;45044;41.572;24.730;2023-07-02T01:07:12;90863.63;;;14.82;100.00
59274;BME280;45044;41.572;24.730;2023-07-02T01:09:57;90857.28;;;14.59;100.00
59274;BME280;45044;41.572;24.730;2023-07-02T01:12:45;90870.44;;;14.42;100.00
59274;BME280;45044;41.572;24.730;2023-07-02T01:15:31;90855.22;;;14.30;100.00
59274;BME280;45044;41.572;24.730;2023-07-02T01:18:18;90858.41;;;14.21;100.00
59274;BME280;45044;41.572;24.730;2023-07-02T01:21:05;90844.78;;;14.22;100.00
59274;BME280;45044;41.572;24.730;2023-07-02T01:23:51;90850.81;;;14.23;100.00
59274;BME280;45044;41.572;24.730;2023-07-02T01:26:37;90859.19;;;13.97;100.00
59274;BME280;45044;41.572;24.730;2023-07-02T01:29:23;90850.78;;;14.03;100.00
59274;BME280;45044;41.572;24.730;2023-07-02T01:32:08;90864.94;;;13.92;100.00
59274;BME280;45044;41.572;24.730;2023-07-02T01:34:54;90857.41;;;13.91;100.00
59274;BME280;45044;41.572;24.730;2023-07-02T01:37:39;90857.91;;;14.06;100.00
59274;BME280;45044;41.572;24.730;2023-07-02T01:40:24;90854.03;;;13.90;100.00
59274;BME280;45044;41.572;24.730;2023-07-02T01:43:10;90850.44;;;14.00;100.00
59274;BME280;45044;41.572;24.730;2023-07-02T01:45:56;90849.94;;;13.85;100.00
59274;BME280;45044;41.572;24.730;2023-07-02T01:48:41;90855.13;;;13.93;100.00
59274;BME280;45044;41.572;24.730;2023-07-02T01:51:27;90852.06;;;13.94;100.00
59274;BME280;45044;41.572;24.730;2023-07-02T01:54:12;90853.78;;;14.05;100.00
59274;BME280;45044;41.572;24.730;2023-07-02T01:56:57;90854.38;;;14.12;100.00
59274;BME280;45044;41.572;24.730;2023-07-02T01:59:43;90852.00;;;14.18;100.00
59274;BME280;45044;41.572;24.730;2023-07-02T02:02:29;90849.72;;;14.20;100.00
59274;BME280;45044;41.572;24.730;2023-07-02T02:05:14;90850.31;;;14.08;100.00
59274;BME280;45044;41.572;24.730;2023-07-02T02:07:59;90852.28;;;14.04;100.00
59274;BME280;45044;41.572;24.730;2023-07-02T02:10:45;90844.47;;;13.96;100.00
59274;BME280;45044;41.572;24.730;2023-07-02T02:13:30;90843.22;;;14.05;100.00
59274;BME280;45044;41.572;24.730;2023-07-02T02:16:16;90840.00;;;13.93;100.00
59274;BME280;45044;41.572;24.730;2023-07-02T02:19:02;90838.72;;;14.01;100.00
59274;BME280;45044;41.572;24.730;2023-07-02T02:21:47;90855.44;;;13.74;100.00
59274;BME280;45044;41.572;24.730;2023-07-02T02:24:33;90846.06;;;13.94;100.00
59274;BME280;45044;41.572;24.730;2023-07-02T02:27:18;90858.03;;;13.98;100.00
59274;BME280;45044;41.572;24.730;2023-07-02T02:30:04;90848.22;;;13.99;100.00
59274;BME280;45044;41.572;24.730;2023-07-02T02:32:50;90864.88;;;13.96;100.00
59274;BME280;45044;41.572;24.730;2023-07-02T02:35:35;90864.94;;;13.92;100.00
59274;BME280;45044;41.572;24.730;2023-07-02T02:38:20;90863.44;;;13.91;100.00
59274;BME280;45044;41.572;24.730;2023-07-02T02:41:06;90857.63;;;14.00;100.00
59274;BME280;45044;41.572;24.730;2023-07-02T02:43:53;90858.84;;;13.95;100.00
59274;BME280;45044;41.572;24.730;2023-07-02T02:46:39;90863.09;;;13.89;100.00
59274;BME280;45044;41.572;24.730;2023-07-02T02:49:24;90855.31;;;14.02;100.00
59274;BME280;45044;41.572;24.730;2023-07-02T02:52:10;90861.78;;;14.01;100.00
59274;BME280;45044;41.572;24.730;2023-07-02T02:54:56;90858.38;;;14.00;100.00
59274;BME280;45044;41.572;24.730;2023-07-02T02:57:41;90860.06;;;14.11;100.00
59274;BME280;45044;41.572;24.730;2023-07-02T03:00:28;90860.97;;;14.04;100.00
59274;BME280;45044;41.572;24.730;2023-07-02T03:03:13;90857.63;;;14.00;100.00
59274;BME280;45044;41.572;24.730;2023-07-02T03:06:00;90857.03;;;14.12;100.00
59274;BME280;45044;41.572;24.730;2023-07-02T03:08:46;90856.16;;;14.19;100.00
59274;BME280;45044;41.572;24.730;2023-07-02T03:11:32;90854.53;;;14.25;100.00
59274;BME280;45044;41.572;24.730;2023-07-02T03:14:18;90856.97;;;14.16;100.00
59274;BME280;45044;41.572;24.730;2023-07-02T03:17:03;90864.47;;;14.18;100.00
59274;BME280;45044;41.572;24.730;2023-07-02T03:19:49;90856.81;;;14.23;100.00
59274;BME280;45044;41.572;24.730;2023-07-02T03:22:35;90853.69;;;13.88;100.00
59274;BME280;45044;41.572;24.730;2023-07-02T03:25:20;90861.03;;;14.00;100.00
59274;BME280;45044;41.572;24.730;2023-07-02T03:28:05;90858.44;;;13.97;100.00
59274;BME280;45044;41.572;24.730;2023-07-02T03:30:50;90856.34;;;14.08;100.00
59274;BME280;45044;41.572;24.730;2023-07-02T03:33:36;90860.13;;;14.07;100.00
59274;BME280;45044;41.572;24.730;2023-07-02T03:36:22;90852.97;;;14.08;100.00
59274;BME280;45044;41.572;24.730;2023-07-02T03:39:07;90856.81;;;14.23;100.00
59274;BME280;45044;41.572;24.730;2023-07-02T03:41:55;90861.09;;;14.37;100.00
59274;BME280;45044;41.572;24.730;2023-07-02T03:44:40;90857.91;;;14.26;100.00
59274;BME280;45044;41.572;24.730;2023-07-02T03:47:25;90852.69;;;14.43;100.00
59274;BME280;45044;41.572;24.730;2023-07-02T03:50:11;90851.81;;;14.29;100.00
59274;BME280;45044;41.572;24.730;2023-07-02T03:52:56;90852.75;;;14.39;100.00
59274;BME280;45044;41.572;24.730;2023-07-02T03:55:41;90856.53;;;14.38;100.00
59274;BME280;45044;41.572;24.730;2023-07-02T03:58:27;90858.13;;;14.35;100.00
59274;BME280;45044;41.572;24.730;2023-07-02T04:01:12;90869.16;;;14.10;100.00
59274;BME280;45044;41.572;24.730;2023-07-02T04:04:10;90869.75;;;14.38;100.00
59274;BME280;45044;41.572;24.730;2023-07-02T04:06:57;90858.19;;;14.32;100.00
59274;BME280;45044;41.572;24.730;2023-07-02T04:09:43;90869.22;;;14.47;100.00
59274;BME280;45044;41.572;24.730;2023-07-02T04:12:30;90874.63;;;14.60;100.00
59274;BME280;45044;41.572;24.730;2023-07-02T04:15:16;90865.94;;;14.59;100.00
59274;BME280;45044;41.572;24.730;2023-07-02T04:18:01;90868.69;;;14.35;100.00
59274;BME280;45044;41.572;24.730;2023-07-02T04:20:51;90868.81;;;14.48;100.00
59274;BME280;45044;41.572;24.730;2023-07-02T04:23:36;90878.31;;;14.46;100.00
59274;BME280;45044;41.572;24.730;2023-07-02T04:26:22;90872.81;;;14.57;100.00
59274;BME280;45044;41.572;24.730;2023-07-02T04:29:27;90881.78;;;14.80;100.00
59274;BME280;45044;41.572;24.730;2023-07-02T04:32:12;90889.81;;;14.76;100.00
59274;BME280;45044;41.572;24.730;2023-07-02T04:34:58;90885.75;;;14.92;100.00
59274;BME280;45044;41.572;24.730;2023-07-02T04:37:43;90883.19;;;15.05;100.00
59274;BME280;45044;41.572;24.730;2023-07-02T04:40:29;90884.00;;;15.02;100.00
59274;BME280;45044;41.572;24.730;2023-07-02T04:43:14;90890.56;;;15.30;100.00
59274;BME280;45044;41.572;24.730;2023-07-02T04:46:03;90884.06;;;15.52;100.00
59274;BME280;45044;41.572;24.730;2023-07-02T04:48:53;90892.81;;;15.82;100.00
59274;BME280;45044;41.572;24.730;2023-07-02T04:51:38;90894.25;;;17.02;100.00
59274;BME280;45044;41.572;24.730;2023-07-02T04:54:24;90900.97;;;17.46;100.00
59274;BME280;45044;41.572;24.730;2023-07-02T04:57:09;90897.44;;;17.75;100.00
59274;BME280;45044;41.572;24.730;2023-07-02T04:59:54;90900.00;;;19.04;100.00
59274;BME280;45044;41.572;24.730;2023-07-02T05:02:40;90906.88;;;20.44;100.00
59274;BME280;45044;41.572;24.730;2023-07-02T05:05:26;90916.63;;;20.38;100.00
59274;BME280;45044;41.572;24.730;2023-07-02T05:08:11;90910.78;;;21.48;100.00
59274;BME280;45044;41.572;24.730;2023-07-02T05:10:56;90904.25;;;22.72;100.00
59274;BME280;45044;41.572;24.730;2023-07-02T05:13:41;90909.69;;;23.53;100.00
59274;BME280;45044;41.572;24.730;2023-07-02T05:16:27;90912.56;;;24.07;100.00
59274;BME280;45044;41.572;24.730;2023-07-02T05:19:12;90912.50;;;24.37;100.00
59274;BME280;45044;41.572;24.730;2023-07-02T05:21:58;90910.75;;;25.08;100.00
59274;BME280;45044;41.572;24.730;2023-07-02T05:24:43;90906.47;;;25.92;100.00
59274;BME280;45044;41.572;24.730;2023-07-02T05:27:29;90899.22;;;26.77;100.00
59274;BME280;45044;41.572;24.730;2023-07-02T05:30:14;90897.78;;;27.62;89.64
59274;BME280;45044;41.572;24.730;2023-07-02T05:33:00;90894.41;;;28.44;78.37
59274;BME280;45044;41.572;24.730;2023-07-02T05:35:45;90888.44;;;29.05;66.61
59274;BME280;45044;41.572;24.730;2023-07-02T05:38:31;90894.63;;;29.92;63.50
59274;BME280;45044;41.572;24.730;2023-07-02T05:41:20;90887.81;;;30.55;61.07
59274;BME280;45044;41.572;24.730;2023-07-02T05:44:06;90879.19;;;31.41;58.62
59274;BME280;45044;41.572;24.730;2023-07-02T05:46:51;90883.47;;;31.83;53.72
59274;BME280;45044;41.572;24.730;2023-07-02T05:49:37;90880.63;;;31.62;54.62
59274;BME280;45044;41.572;24.730;2023-07-02T05:52:22;90895.34;;;31.53;55.31
59274;BME280;45044;41.572;24.730;2023-07-02T05:55:10;90879.13;;;32.07;55.88
59274;BME280;45044;41.572;24.730;2023-07-02T05:57:55;90880.75;;;32.37;54.88
59274;BME280;45044;41.572;24.730;2023-07-02T06:00:46;90882.06;;;31.30;58.61
59274;BME280;45044;41.572;24.730;2023-07-02T06:03:35;90872.84;;;32.26;58.18
59274;BME280;45044;41.572;24.730;2023-07-02T06:06:21;90866.78;;;32.33;58.17
59274;BME280;45044;41.572;24.730;2023-07-02T06:09:10;90883.97;;;30.00;63.12
59274;BME280;45044;41.572;24.730;2023-07-02T06:11:55;90883.03;;;29.36;91.35
59274;BME280;45044;41.572;24.730;2023-07-02T06:14:40;90890.66;;;27.88;100.00
59274;BME280;45044;41.572;24.730;2023-07-02T06:17:26;90878.59;;;26.62;100.00
59274;BME280;45044;41.572;24.730;2023-07-02T06:20:11;90881.56;;;27.91;97.02
59274;BME280;45044;41.572;24.730;2023-07-02T06:22:57;90881.78;;;29.98;78.83
59274;BME280;45044;41.572;24.730;2023-07-02T06:25:43;90891.75;;;30.34;68.45
59274;BME280;45044;41.572;24.730;2023-07-02T06:28:28;90883.47;;;30.21;55.14
59274;BME280;45044;41.572;24.730;2023-07-02T06:31:13;90888.28;;;28.38;90.62
59274;BME280;45044;41.572;24.730;2023-07-02T06:33:59;90873.50;;;26.87;81.19
59274;BME280;45044;41.572;24.730;2023-07-02T06:36:45;90868.50;;;26.46;100.00
59274;BME280;45044;41.572;24.730;2023-07-02T06:39:30;90874.00;;;24.46;100.00
59274;BME280;45044;41.572;24.730;2023-07-02T06:42:15;90866.06;;;24.15;100.00
59274;BME280;45044;41.572;24.730;2023-07-02T06:45:04;90860.66;;;23.89;100.00
59274;BME280;45044;41.572;24.730;2023-07-02T06:47:50;90865.34;;;23.22;100.00
59274;BME280;45044;41.572;24.730;2023-07-02T06:50:35;90869.91;;;23.88;100.00
59274;BME280;45044;41.572;24.730;2023-07-02T06:53:20;90865.47;;;24.26;100.00
59274;BME280;45044;41.572;24.730;2023-07-02T06:56:07;90868.94;;;24.80;100.00
59274;BME280;45044;41.572;24.730;2023-07-02T06:58:52;90860.66;;;23.89;100.00
59274;BME280;45044;41.572;24.730;2023-07-02T07:01:38;90860.31;;;24.70;100.00
59274;BME280;45044;41.572;24.730;2023-07-02T07:04:23;90862.00;;;23.78;100.00
59274;BME280;45044;41.572;24.730;2023-07-02T07:07:08;90870.13;;;23.48;100.00
59274;BME280;45044;41.572;24.730;2023-07-02T07:09:54;90861.22;;;22.91;100.00
59274;BME280;45044;41.572;24.730;2023-07-02T07:12:39;90852.41;;;23.72;100.00
59274;BME280;45044;41.572;24.730;2023-07-02T07:15:24;90862.78;;;24.26;100.00
59274;BME280;45044;41.572;24.730;2023-07-02T07:18:10;90872.38;;;24.54;100.00
59274;BME280;45044;41.572;24.730;2023-07-02T07:20:56;90863.38;;;23.74;100.00
59274;BME280;45044;41.572;24.730;2023-07-02T07:23:42;90859.50;;;24.37;100.00
59274;BME280;45044;41.572;24.730;2023-07-02T07:26:27;90859.94;;;24.57;100.00
59274;BME280;45044;41.572;24.730;2023-07-02T07:29:13;90865.63;;;24.64;100.00
59274;BME280;45044;41.572;24.730;2023-07-02T07:31:58;90860.19;;;25.44;100.00
59274;BME280;45044;41.572;24.730;2023-07-02T07:34:44;90867.59;;;25.23;100.00
59274;BME280;45044;41.572;24.730;2023-07-02T07:37:29;90851.38;;;24.85;100.00
59274;BME280;45044;41.572;24.730;2023-07-02T07:40:24;90859.19;;;24.83;100.00
59274;BME280;45044;41.572;24.730;2023-07-02T07:43:10;90865.28;;;25.04;100.00
59274;BME280;45044;41.572;24.730;2023-07-02T07:45:56;90851.94;;;24.89;100.00
59274;BME280;45044;41.572;24.730;2023-07-02T07:48:41;90860.03;;;24.68;100.00
59274;BME280;45044;41.572;24.730;2023-07-02T07:51:26;90855.56;;;24.33;100.00
59274;BME280;45044;41.572;24.730;2023-07-02T07:54:15;90849.91;;;23.89;100.00
59274;BME280;45044;41.572;24.730;2023-07-02T07:57:00;90855.75;;;24.50;100.00
59274;BME280;45044;41.572;24.730;2023-07-02T07:59:45;90863.09;;;24.82;100.00
59274;BME280;45044;41.572;24.730;2023-07-02T08:02:30;90859.50;;;25.17;100.00
59274;BME280;45044;41.572;24.730;2023-07-02T08:05:16;90853.06;;;25.41;100.00
59274;BME280;45044;41.572;24.730;2023-07-02T08:08:01;90862.28;;;24.96;100.00
59274;BME280;45044;41.572;24.730;2023-07-02T08:10:46;90863.50;;;25.28;100.00
59274;BME280;45044;41.572;24.730;2023-07-02T08:13:34;90864.09;;;24.31;100.00
59274;BME280;45044;41.572;24.730;2023-07-02T08:16:20;90859.44;;;24.11;100.00
59274;BME280;45044;41.572;24.730;2023-07-02T08:19:06;90862.50;;;23.62;100.00
59274;BME280;45044;41.572;24.730;2023-07-02T08:21:52;90871.63;;;23.70;100.00
59274;BME280;45044;41.572;24.730;2023-07-02T08:24:37;90869.09;;;23.61;100.00
59274;BME280;45044;41.572;24.730;2023-07-02T08:27:24;90874.44;;;23.61;100.00
59274;BME280;45044;41.572;24.730;2023-07-02T08:30:11;90874.09;;;23.38;100.00
59274;BME280;45044;41.572;24.730;2023-07-02T08:32:56;90872.38;;;23.71;100.00
59274;BME280;45044;41.572;24.730;2023-07-02T08:35:42;90875.31;;;24.30;100.00
59274;BME280;45044;41.572;24.730;2023-07-02T08:38:27;90870.19;;;23.90;100.00
59274;BME280;45044;41.572;24.730;2023-07-02T08:41:13;90881.91;;;23.20;100.00
59274;BME280;45044;41.572;24.730;2023-07-02T08:43:59;90893.56;;;23.02;100.00
59274;BME280;45044;41.572;24.730;2023-07-02T08:46:45;90893.34;;;22.91;100.00
59274;BME280;45044;41.572;24.730;2023-07-02T08:49:33;90873.16;;;23.56;100.00
59274;BME280;45044;41.572;24.730;2023-07-02T08:52:18;90882.38;;;24.12;100.00
59274;BME280;45044;41.572;24.730;2023-07-02T08:55:04;90881.78;;;24.23;100.00
59274;BME280;45044;41.572;24.730;2023-07-02T08:57:53;90877.66;;;24.69;100.00
59274;BME280;45044;41.572;24.730;2023-07-02T09:00:39;90880.50;;;25.13;100.00
59274;BME280;45044;41.572;24.730;2023-07-02T09:03:25;90877.00;;;25.77;100.00
59274;BME280;45044;41.572;24.730;2023-07-02T09:06:11;90879.25;;;25.79;100.00
59274;BME280;45044;41.572;24.730;2023-07-02T09:09:04;90882.38;;;24.54;100.00
59274;BME280;45044;41.572;24.730;2023-07-02T09:11:50;90875.31;;;24.83;100.00
59274;BME280;45044;41.572;24.730;2023-07-02T09:14:35;90861.38;;;25.43;100.00
59274;BME280;45044;41.572;24.730;2023-07-02T09:17:20;90867.31;;;25.15;100.00
59274;BME280;45044;41.572;24.730;2023-07-02T09:20:08;90865.31;;;24.83;100.00
59274;BME280;45044;41.572;24.730;2023-07-02T09:22:54;90866.78;;;25.11;100.00
59274;BME280;45044;41.572;24.730;2023-07-02T09:25:40;90870.03;;;24.41;100.00
59274;BME280;45044;41.572;24.730;2023-07-02T09:28:26;90857.94;;;24.51;100.00
59274;BME280;45044;41.572;24.730;2023-07-02T09:31:11;90855.09;;;24.87;100.00
59274;BME280;45044;41.572;24.730;2023-07-02T09:34:01;90862.94;;;24.91;100.00
59274;BME280;45044;41.572;24.730;2023-07-02T09:36:47;90867.25;;;24.83;100.00
59274;BME280;45044;41.572;24.730;2023-07-02T09:39:34;90864.09;;;25.11;100.00
59274;BME280;45044;41.572;24.730;2023-07-02T09:42:20;90870.97;;;24.59;100.00
59274;BME280;45044;41.572;24.730;2023-07-02T09:45:10;90861.88;;;25.09;100.00
59274;BME280;45044;41.572;24.730;2023-07-02T09:47:57;90867.16;;;25.30;100.00
59274;BME280;45044;41.572;24.730;2023-07-02T09:50:45;90858.31;;;25.62;100.00
59274;BME280;45044;41.572;24.730;2023-07-02T09:53:31;90864.28;;;25.40;100.00
59274;BME280;45044;41.572;24.730;2023-07-02T09:56:16;90850.63;;;25.81;100.00
59274;BME280;45044;41.572;24.730;2023-07-02T09:59:03;90855.94;;;26.31;100.00
59274;BME280;45044;41.572;24.730;2023-07-02T10:01:48;90861.75;;;25.63;100.00
59274;BME280;45044;41.572;24.730;2023-07-02T10:07:31;90858.84;;;25.28;100.00
59274;BME280;45044;41.572;24.730;2023-07-02T10:10:30;90860.19;;;25.44;100.00
59274;BME280;45044;41.572;24.730;2023-07-02T10:13:26;90849.66;;;25.46;100.00
59274;BME280;45044;41.572;24.730;2023-07-02T10:16:12;90851.03;;;25.68;100.00
59274;BME280;45044;41.572;24.730;2023-07-02T10:19:13;90851.91;;;25.16;100.00
59274;BME280;45044;41.572;24.730;2023-07-02T10:22:03;90844.28;;;25.90;100.00
59274;BME280;45044;41.572;24.730;2023-07-02T10:24:58;90850.38;;;25.09;100.00
59274;BME280;45044;41.572;24.730;2023-07-02T10:27:47;90841.53;;;25.35;100.00
59274;BME280;45044;41.572;24.730;2023-07-02T10:30:33;90840.78;;;24.70;100.00
59274;BME280;45044;41.572;24.730;2023-07-02T10:33:19;90832.63;;;25.61;100.00
59274;BME280;45044;41.572;24.730;2023-07-02T10:36:05;90825.66;;;25.81;100.00
59274;BME280;45044;41.572;24.730;2023-07-02T10:38:51;90828.03;;;26.34;100.00
59274;BME280;45044;41.572;24.730;2023-07-02T10:41:37;90819.84;;;26.00;100.00
59274;BME280;45044;41.572;24.730;2023-07-02T10:44:22;90817.44;;;25.58;100.00
59274;BME280;45044;41.572;24.730;2023-07-02T10:47:08;90825.66;;;25.05;100.00
59274;BME280;45044;41.572;24.730;2023-07-02T10:49:53;90811.53;;;25.98;100.00
59274;BME280;45044;41.572;24.730;2023-07-02T10:52:39;90807.69;;;26.22;100.00
59274;BME280;45044;41.572;24.730;2023-07-02T10:55:26;90804.09;;;26.48;100.00
59274;BME280;45044;41.572;24.730;2023-07-02T10:58:12;90803.00;;;25.50;100.00
59274;BME280;45044;41.572;24.730;2023-07-02T11:00:59;90824.13;;;25.68;100.00
59274;BME280;45044;41.572;24.730;2023-07-02T11:03:45;90818.38;;;25.49;100.00
59274;BME280;45044;41.572;24.730;2023-07-02T11:06:22;90805.69;;;25.50;100.00
59274;BME280;45044;41.572;24.730;2023-07-02T11:08:49;90805.72;;;25.55;100.00
59274;BME280;45044;41.572;24.730;2023-07-02T11:11:16;90815.13;;;25.39;100.00
59274;BME280;45044;41.572;24.730;2023-07-02T11:13:47;90829.06;;;24.99;100.00
59274;BME280;45044;41.572;24.730;2023-07-02T11:16:32;90822.75;;;25.41;100.00
59274;BME280;45044;41.572;24.730;2023-07-02T11:19:09;90808.81;;;25.42;100.00
59274;BME280;45044;41.572;24.730;2023-07-02T11:21:36;90797.84;;;26.01;100.00
59274;BME280;45044;41.572;24.730;2023-07-02T11:24:07;90804.78;;;26.31;100.00
59274;BME280;45044;41.572;24.730;2023-07-02T11:26:38;90810.00;;;26.63;100.00
59274;BME280;45044;41.572;24.730;2023-07-02T11:29:11;90793.31;;;26.59;100.00
59274;BME280;45044;41.572;24.730;2023-07-02T11:31:38;90782.22;;;26.11;100.00
59274;BME280;45044;41.572;24.730;2023-07-02T11:34:18;90789.09;;;26.24;100.00
59274;BME280;45044;41.572;24.730;2023-07-02T11:36:48;90779.19;;;25.92;100.00
59274;BME280;45044;41.572;24.730;2023-07-02T11:39:16;90783.31;;;25.76;100.00
59274;BME280;45044;41.572;24.730;2023-07-02T11:41:45;90788.38;;;25.62;100.00
59274;BME280;45044;41.572;24.730;2023-07-02T11:44:12;90784.44;;;25.14;100.00
59274;BME280;45044;41.572;24.730;2023-07-02T11:46:39;90782.22;;;25.12;100.00
59274;BME280;45044;41.572;24.730;2023-07-02T11:49:06;90766.84;;;25.62;100.00
59274;BME280;45044;41.572;24.730;2023-07-02T11:51:38;90785.81;;;25.91;100.00
59274;BME280;45044;41.572;24.730;2023-07-02T11:54:05;90774.50;;;25.81;100.00
59274;BME280;45044;41.572;24.730;2023-07-02T11:56:33;90772.31;;;25.79;100.00
59274;BME280;45044;41.572;24.730;2023-07-02T11:59:00;90766.94;;;25.35;100.00
59274;BME280;45044;41.572;24.730;2023-07-02T12:01:30;90793.00;;;24.85;100.00
59274;BME280;45044;41.572;24.730;2023-07-02T12:03:57;90770.97;;;25.08;100.00
59274;BME280;45044;41.572;24.730;2023-07-02T12:06:24;90779.69;;;24.70;100.00
59274;BME280;45044;41.572;24.730;2023-07-02T12:08:51;90772.16;;;25.07;100.00
59274;BME280;45044;41.572;24.730;2023-07-02T12:11:18;90767.16;;;25.26;100.00
59274;BME280;45044;41.572;24.730;2023-07-02T12:13:45;90761.31;;;25.28;100.00
59274;BME280;45044;41.572;24.730;2023-07-02T12:16:12;90765.94;;;24.89;100.00
59274;BME280;45044;41.572;24.730;2023-07-02T12:18:38;90772.28;;;24.59;100.00
59274;BME280;45044;41.572;24.730;2023-07-02T12:21:06;90778.38;;;24.07;100.00
59274;BME280;45044;41.572;24.730;2023-07-02T12:23:32;90781.31;;;24.09;100.00
59274;BME280;45044;41.572;24.730;2023-07-02T12:25:59;90776.38;;;24.01;100.00
59274;BME280;45044;41.572;24.730;2023-07-02T12:28:26;90765.53;;;23.90;100.00
59274;BME280;45044;41.572;24.730;2023-07-02T12:30:54;90776.72;;;23.88;100.00
59274;BME280;45044;41.572;24.730;2023-07-02T12:33:20;90792.44;;;23.75;100.00
59274;BME280;45044;41.572;24.730;2023-07-02T12:35:47;90802.22;;;23.78;100.00
59274;BME280;45044;41.572;24.730;2023-07-02T12:38:14;90802.81;;;23.67;100.00
59274;BME280;45044;41.572;24.730;2023-07-02T12:40:41;90803.97;;;23.60;100.00
59274;BME280;45044;41.572;24.730;2023-07-02T12:43:08;90794.44;;;23.59;100.00
59274;BME280;45044;41.572;24.730;2023-07-02T12:45:35;90798.25;;;23.52;100.00
59274;BME280;45044;41.572;24.730;2023-07-02T12:48:02;90797.00;;;23.32;100.00
59274;BME280;45044;41.572;24.730;2023-07-02T12:50:30;90807.56;;;23.21;100.00
59274;BME280;45044;41.572;24.730;2023-07-02T12:52:58;90807.72;;;23.32;100.00
59274;BME280;45044;41.572;24.730;2023-07-02T12:55:25;90804.03;;;23.30;100.00
59274;BME280;45044;41.572;24.730;2023-07-02T12:57:51;90785.09;;;23.33;100.00
59274;BME280;45044;41.572;24.730;2023-07-02T13:00:19;90786.69;;;23.10;100.00
59274;BME280;45044;41.572;24.730;2023-07-02T13:02:47;90771.31;;;22.90;100.00
59274;BME280;45044;41.572;24.730;2023-07-02T13:05:33;90780.47;;;22.83;100.00
59274;BME280;45044;41.572;24.730;2023-07-02T13:07:59;90770.47;;;22.99;100.00
59274;BME280;45044;41.572;24.730;2023-07-02T13:10:26;90778.25;;;22.96;100.00
59274;BME280;45044;41.572;24.730;2023-07-02T13:12:53;90788.75;;;23.00;100.00
59274;BME280;45044;41.572;24.730;2023-07-02T13:15:23;90802.66;;;22.83;100.00
59274;BME280;45044;41.572;24.730;2023-07-02T13:17:50;90804.38;;;22.87;100.00
59274;BME280;45044;41.572;24.730;2023-07-02T13:20:17;90807.44;;;22.94;100.00
59274;BME280;45044;41.572;24.730;2023-07-02T13:22:44;90802.81;;;22.80;100.00
59274;BME280;45044;41.572;24.730;2023-07-02T13:25:11;90796.34;;;22.87;100.00
59274;BME280;45044;41.572;24.730;2023-07-02T13:27:37;90811.69;;;22.86;100.00
59274;BME280;45044;41.572;24.730;2023-07-02T13:30:05;90805.50;;;22.95;100.00
59274;BME280;45044;41.572;24.730;2023-07-02T13:32:32;90817.63;;;22.75;100.00
59274;BME280;45044;41.572;24.730;2023-07-02T13:34:59;90817.44;;;22.64;100.00
59274;BME280;45044;41.572;24.730;2023-07-02T13:37:26;90827.19;;;22.36;100.00
59274;BME280;45044;41.572;24.730;2023-07-02T13:39:53;90821.28;;;21.93;100.00
59274;BME280;45044;41.572;24.730;2023-07-02T13:42:19;90828.28;;;20.98;100.00
59274;BME280;45044;41.572;24.730;2023-07-02T13:44:46;90837.63;;;20.31;100.00
59274;BME280;45044;41.572;24.730;2023-07-02T13:47:13;90842.34;;;19.98;100.00
59274;BME280;45044;41.572;24.730;2023-07-02T13:49:40;90823.97;;;19.82;100.00
59274;BME280;45044;41.572;24.730;2023-07-02T13:52:07;90797.00;;;19.70;100.00
59274;BME280;45044;41.572;24.730;2023-07-02T13:54:34;90812.09;;;19.83;100.00
59274;BME280;45044;41.572;24.730;2023-07-02T13:57:03;90808.28;;;19.93;100.00
59274;BME280;45044;41.572;24.730;2023-07-02T13:59:30;90812.25;;;19.89;100.00